createdAt,value
2019-02-16T00:02:19.258Z,30.17
2019-02-16T00:04:47.821Z,27.50
2019-02-16T00:07:16.378Z,28.50
2019-02-16T00:09:45.256Z,27.90
2019-02-16T00:12:13.798Z,28.70
2019-02-16T00:14:42.629Z,27.70
2019-02-16T00:17:11.625Z,25.53
2019-02-16T00:19:40.155Z,23.57
2019-02-16T00:22:08.745Z,29.97
2019-02-16T00:24:37.308Z,28.93
2019-02-16T00:27:05.859Z,26.40
2019-02-16T00:29:34.430Z,31.43
2019-02-16T00:32:02.986Z,30.03
2019-02-16T00:34:31.572Z,29.50
2019-02-16T00:37:00.452Z,26.30
2019-02-16T00:39:29.002Z,30.53
2019-02-16T00:41:57.586Z,31.00
2019-02-16T00:44:26.127Z,29.47
2019-02-16T00:46:54.696Z,26.13
2019-02-16T00:49:23.234Z,28.07
2019-02-16T00:51:51.751Z,29.33
2019-02-16T00:54:20.235Z,28.33
2019-02-16T00:56:48.810Z,29.73
2019-02-16T00:59:17.378Z,29.63
2019-02-16T01:01:45.928Z,28.90
2019-02-16T01:04:14.445Z,30.03
2019-02-16T01:06:42.920Z,29.43
2019-02-16T01:09:11.392Z,29.40
2019-02-16T01:11:39.966Z,32.90
2019-02-16T01:14:08.523Z,28.30
2019-02-16T01:16:37.091Z,29.97
2019-02-16T01:19:05.657Z,30.90
2019-02-16T01:21:34.213Z,28.10
2019-02-16T01:24:02.787Z,29.97
2019-02-16T01:26:31.345Z,28.93
2019-02-16T01:28:59.949Z,26.63
2019-02-16T01:31:28.945Z,32.67
2019-02-16T01:33:57.549Z,30.57
2019-02-16T01:36:26.253Z,28.43
2019-02-16T01:38:54.848Z,31.63
2019-02-16T01:41:23.482Z,32.23
2019-02-16T01:43:52.091Z,31.27
2019-02-16T01:46:20.725Z,30.47
2019-02-16T01:48:49.570Z,30.60
2019-02-16T01:51:18.133Z,28.07
2019-02-16T01:53:46.756Z,33.00
2019-02-16T01:56:15.370Z,29.60
2019-02-16T01:58:44.020Z,32.17
2019-02-16T02:01:12.634Z,31.77
2019-02-16T02:03:41.231Z,30.83
2019-02-16T02:06:10.175Z,31.37
2019-02-16T02:08:38.781Z,33.37
2019-02-16T02:11:07.874Z,34.43
2019-02-16T02:13:36.506Z,36.90
2019-02-16T02:16:05.430Z,33.63
2019-02-16T02:18:34.043Z,32.53
2019-02-16T02:21:02.642Z,32.00
2019-02-16T02:23:31.264Z,36.80
2019-02-16T02:26:00.269Z,31.93
2019-02-16T02:28:28.881Z,35.80
2019-02-16T02:30:57.503Z,38.43
2019-02-16T02:33:26.237Z,34.53
2019-02-16T02:35:54.881Z,28.60
2019-02-16T02:38:23.483Z,33.57
2019-02-16T02:40:52.121Z,38.53
2019-02-16T02:43:20.721Z,36.03
2019-02-16T02:45:49.317Z,32.70
2019-02-16T02:48:17.951Z,35.33
2019-02-16T02:50:46.563Z,33.93
2019-02-16T02:53:15.200Z,35.47
2019-02-16T02:55:43.809Z,32.00
2019-02-16T02:58:12.419Z,35.10
2019-02-16T03:00:41.043Z,36.07
2019-02-16T03:03:09.651Z,36.00
2019-02-16T03:05:38.279Z,36.90
2019-02-16T03:08:06.881Z,35.67
2019-02-16T03:10:35.823Z,35.47
2019-02-16T03:13:04.443Z,36.33
2019-02-16T03:15:33.044Z,34.37
2019-02-16T03:18:01.692Z,40.20
2019-02-16T03:20:30.290Z,36.87
2019-02-16T03:23:16.948Z,41.03
2019-02-16T03:25:54.384Z,39.53
2019-02-16T03:28:35.585Z,35.93
2019-02-16T03:31:23.823Z,37.07
2019-02-16T03:34:19.585Z,37.23
2019-02-16T03:37:09.237Z,38.13
2019-02-16T03:39:39.638Z,36.60
2019-02-16T03:42:27.573Z,38.40
2019-02-16T03:44:56.591Z,38.00
2019-02-16T03:47:25.187Z,41.93
2019-02-16T03:49:53.795Z,36.97
2019-02-16T03:52:22.390Z,38.57
2019-02-16T03:54:51.429Z,39.53
2019-02-16T03:57:20.049Z,44.27
2019-02-16T03:59:48.638Z,41.20
2019-02-16T04:02:17.270Z,39.70
2019-02-16T04:04:45.872Z,45.83
2019-02-16T04:07:14.578Z,42.83
2019-02-16T04:09:43.260Z,40.70
2019-02-16T04:12:11.869Z,37.97
2019-02-16T04:14:40.487Z,39.13
2019-02-16T04:17:09.096Z,39.60
2019-02-16T04:19:37.733Z,41.97
2019-02-16T04:22:06.330Z,42.63
2019-02-16T04:24:34.968Z,38.83
2019-02-16T04:27:03.551Z,38.87
2019-02-16T04:29:32.105Z,39.30
2019-02-16T04:32:00.741Z,49.70
2019-02-16T04:34:29.289Z,44.00
2019-02-16T04:36:57.769Z,49.27
2019-02-16T04:39:26.230Z,43.47
2019-02-16T04:41:54.702Z,42.30
2019-02-16T04:44:23.257Z,48.50
2019-02-16T04:46:51.766Z,50.53
2019-02-16T04:49:20.284Z,55.27
2019-02-16T04:51:48.813Z,47.40
2019-02-16T04:54:17.389Z,45.83
2019-02-16T04:56:45.968Z,51.67
2019-02-16T04:59:14.574Z,42.17
2019-02-16T05:01:43.108Z,37.20
2019-02-16T05:04:12.016Z,41.60
2019-02-16T05:06:40.491Z,50.67
2019-02-16T05:09:08.986Z,55.80
2019-02-16T05:11:37.535Z,48.03
2019-02-16T05:14:06.121Z,53.00
2019-02-16T05:16:35.020Z,45.27
2019-02-16T05:19:03.578Z,45.80
2019-02-16T05:21:32.157Z,56.60
2019-02-16T05:24:00.706Z,57.40
2019-02-16T05:26:29.301Z,59.10
2019-02-16T05:28:57.866Z,56.67
2019-02-16T05:31:26.415Z,53.00
2019-02-16T05:33:54.996Z,52.80
2019-02-16T05:36:23.871Z,49.63
2019-02-16T05:38:52.448Z,49.57
2019-02-16T05:41:21.016Z,53.90
2019-02-16T05:43:49.569Z,51.73
2019-02-16T05:46:18.058Z,57.20
2019-02-16T05:48:46.585Z,50.83
2019-02-16T05:51:15.175Z,61.87
2019-02-16T05:53:43.732Z,61.03
2019-02-16T05:56:12.611Z,62.53
2019-02-16T05:58:41.208Z,56.10
2019-02-16T06:01:09.742Z,52.33
2019-02-16T06:03:38.268Z,52.53
2019-02-16T06:06:06.861Z,68.83
2019-02-16T06:08:35.331Z,74.23
2019-02-16T06:11:05.829Z,64.10
2019-02-16T06:13:34.099Z,58.00
2019-02-16T06:16:03.463Z,56.93
2019-02-16T06:18:45.199Z,53.07
2019-02-16T06:21:14.177Z,52.57
2019-02-16T06:23:42.717Z,57.93
2019-02-16T06:26:11.294Z,58.63
2019-02-16T06:28:39.864Z,63.93
2019-02-16T06:31:08.424Z,66.37
2019-02-16T06:33:36.963Z,60.33
2019-02-16T06:36:07.124Z,61.03
2019-02-16T06:38:35.692Z,53.00
2019-02-16T06:41:04.245Z,67.27
2019-02-16T06:43:33.133Z,65.13
2019-02-16T06:46:01.727Z,58.30
2019-02-16T06:48:30.293Z,48.80
2019-02-16T06:50:58.845Z,57.30
2019-02-16T06:53:27.417Z,54.37
2019-02-16T06:55:57.533Z,51.23
2019-02-16T06:58:26.115Z,48.73
2019-02-16T07:00:54.672Z,59.63
2019-02-16T07:03:23.254Z,61.53
2019-02-16T07:05:51.820Z,55.30
2019-02-16T07:08:20.373Z,52.37
2019-02-16T07:10:48.940Z,54.03
2019-02-16T07:13:17.834Z,49.90
2019-02-16T07:15:48.057Z,52.30
2019-02-16T07:18:18.270Z,49.30
2019-02-16T07:20:46.840Z,50.37
2019-02-16T07:23:22.153Z,47.77
2019-02-16T07:25:45.626Z,47.73
2019-02-16T07:28:14.242Z,45.77
2019-02-16T07:30:42.820Z,48.93
2019-02-16T07:33:11.368Z,49.93
2019-02-16T07:35:39.943Z,49.80
2019-02-16T07:38:08.498Z,48.20
2019-02-16T07:40:37.080Z,46.40
2019-02-16T07:43:06.207Z,44.87
2019-02-16T07:45:36.395Z,50.23
2019-02-16T07:48:06.619Z,48.93
2019-02-16T07:50:39.787Z,46.27
2019-02-16T07:53:18.795Z,44.27
2019-02-16T07:55:48.998Z,46.10
2019-02-16T07:58:19.105Z,48.27
2019-02-16T08:00:51.745Z,49.00
2019-02-16T08:03:38.090Z,47.93
2019-02-16T08:06:08.326Z,39.40
2019-02-16T08:08:41.226Z,41.60
2019-02-16T08:11:17.208Z,41.30
2019-02-16T08:13:50.383Z,35.87
2019-02-16T08:16:20.569Z,34.43
2019-02-16T08:18:50.723Z,35.43
2019-02-16T08:21:23.666Z,35.63
2019-02-16T08:24:10.217Z,34.53
2019-02-16T08:26:40.431Z,31.70
2019-02-16T08:29:13.430Z,32.50
2019-02-16T08:31:43.632Z,30.47
2019-02-16T08:34:25.654Z,33.63
2019-02-16T08:37:04.693Z,31.83
2019-02-16T08:39:34.869Z,33.50
2019-02-16T08:42:05.020Z,33.23
2019-02-16T08:44:38.240Z,33.63
2019-02-16T08:47:11.001Z,35.23
2019-02-16T08:49:41.191Z,40.07
2019-02-16T08:52:11.427Z,35.27
2019-02-16T08:54:41.630Z,32.77
2019-02-16T08:57:14.864Z,36.27
2019-02-16T08:59:56.830Z,32.87
2019-02-16T09:02:29.727Z,29.53
2019-02-16T09:05:02.605Z,32.77
2019-02-16T09:07:44.847Z,31.33
2019-02-16T09:10:15.037Z,28.30
2019-02-16T09:12:51.027Z,33.77
2019-02-16T09:15:21.296Z,36.40
2019-02-16T09:17:54.220Z,32.10
2019-02-16T09:20:24.405Z,34.23
2019-02-16T09:23:03.601Z,31.27
2019-02-16T09:25:42.461Z,33.83
2019-02-16T09:28:12.724Z,33.53
2019-02-16T09:30:52.156Z,31.90
2019-02-16T09:33:38.637Z,31.20
2019-02-16T09:36:08.846Z,33.10
2019-02-16T09:38:38.990Z,30.87
2019-02-16T09:41:25.643Z,32.60
2019-02-16T09:43:55.869Z,30.40
2019-02-16T09:46:26.067Z,30.20
2019-02-16T09:49:11.503Z,26.97
2019-02-16T09:51:41.730Z,29.93
2019-02-16T09:54:15.099Z,31.83
2019-02-16T09:56:48.257Z,27.07
2019-02-16T09:59:24.261Z,34.33
2019-02-16T10:02:09.445Z,34.93
2019-02-16T10:04:45.455Z,33.43
2019-02-16T10:07:15.689Z,28.40
2019-02-16T10:09:45.906Z,32.37
2019-02-16T10:12:16.219Z,32.17
2019-02-16T10:14:55.267Z,30.33
2019-02-16T10:17:42.059Z,30.07
2019-02-16T10:20:18.266Z,31.83
2019-02-16T10:22:57.204Z,29.80
2019-02-16T10:25:33.492Z,29.33
2019-02-16T10:28:19.162Z,28.80
2019-02-16T10:31:04.726Z,31.10
2019-02-16T10:33:37.718Z,30.87
2019-02-16T10:36:16.970Z,32.40
2019-02-16T10:38:47.179Z,31.77
2019-02-16T10:41:17.410Z,28.67
2019-02-16T10:43:50.303Z,28.10
2019-02-16T10:46:32.853Z,28.17
2019-02-16T10:49:03.083Z,29.73
2019-02-16T10:51:39.133Z,29.80
2019-02-16T10:54:15.417Z,29.50
2019-02-16T10:56:45.651Z,26.03
2019-02-16T10:59:21.465Z,25.87
2019-02-16T11:02:00.575Z,30.27
2019-02-16T11:04:37.903Z,34.50
2019-02-16T11:07:03.026Z,28.20
2019-02-16T11:09:39.018Z,29.43
2019-02-16T11:12:15.015Z,31.37
2019-02-16T11:14:51.229Z,29.63
2019-02-16T11:17:33.766Z,27.93
2019-02-16T11:20:13.261Z,28.60
2019-02-16T11:22:52.371Z,26.50
2019-02-16T11:25:25.576Z,27.17
2019-02-16T11:28:11.189Z,28.30
2019-02-16T11:30:41.404Z,28.27
2019-02-16T11:33:13.440Z,26.27
2019-02-16T11:35:43.465Z,31.87
2019-02-16T11:38:16.863Z,27.63
2019-02-16T11:40:47.067Z,30.63
2019-02-16T11:43:17.625Z,34.77
2019-02-16T11:45:54.059Z,35.43
2019-02-16T11:48:24.299Z,30.23
2019-02-16T11:51:00.162Z,31.27
2019-02-16T11:53:48.833Z,27.90
2019-02-16T11:56:24.952Z,32.60
2019-02-16T11:58:57.987Z,30.23
2019-02-16T12:01:28.271Z,31.63
2019-02-16T12:03:58.595Z,30.40
2019-02-16T12:06:28.783Z,28.77
2019-02-16T12:09:08.218Z,27.50
2019-02-16T12:11:38.503Z,31.30
2019-02-16T12:14:26.915Z,28.07
2019-02-16T12:16:59.824Z,30.23
2019-02-16T12:19:36.266Z,30.80
2019-02-16T12:22:18.010Z,27.23
2019-02-16T12:25:06.104Z,29.33
2019-02-16T12:27:45.103Z,30.27
2019-02-16T12:30:18.079Z,29.57
2019-02-16T12:32:54.107Z,29.50
2019-02-16T12:35:33.197Z,28.60
2019-02-16T12:38:06.143Z,31.13
2019-02-16T12:40:48.258Z,30.73
2019-02-16T12:43:34.699Z,30.23
2019-02-16T12:46:10.936Z,27.83
2019-02-16T12:48:44.178Z,25.37
2019-02-16T12:51:23.409Z,29.67
2019-02-16T12:54:02.426Z,28.83
2019-02-16T12:56:32.693Z,28.57
2019-02-16T12:59:17.904Z,32.07
2019-02-16T13:01:48.115Z,29.90
2019-02-16T13:04:18.328Z,32.53
2019-02-16T13:06:48.549Z,33.87
2019-02-16T13:09:18.769Z,31.70
2019-02-16T13:11:53.213Z,30.50
2019-02-16T13:14:23.375Z,29.07
2019-02-16T13:17:02.570Z,29.03
2019-02-16T13:19:38.430Z,32.90
2019-02-16T13:22:08.651Z,31.87
2019-02-16T13:24:44.611Z,33.50
2019-02-16T13:27:14.764Z,32.87
2019-02-16T13:30:03.005Z,29.93
2019-02-16T13:32:36.031Z,30.40
2019-02-16T13:35:09.890Z,29.27
2019-02-16T13:37:42.789Z,31.20
2019-02-16T13:40:29.225Z,32.30
2019-02-16T13:43:05.423Z,36.73
2019-02-16T13:56:57.918Z,92.60
2019-02-16T13:59:31.531Z,84.60
2019-02-16T14:02:08.422Z,89.62
2019-02-16T14:04:42.041Z,86.47
2019-02-16T14:07:13.184Z,79.90
2019-02-16T14:10:00.585Z,71.27
2019-02-16T14:19:44.857Z,90.40
2019-02-16T14:22:14.837Z,88.77
2019-02-16T14:24:51.558Z,90.73
2019-02-16T14:28:44.571Z,82.87
2019-02-16T14:31:15.574Z,85.80
2019-02-16T14:33:44.930Z,78.27
2019-02-16T14:36:14.305Z,78.30
2019-02-16T14:38:48.069Z,76.23
2019-02-16T14:41:17.519Z,73.97
2019-02-16T14:43:46.961Z,77.23
2019-02-16T14:46:16.369Z,64.10
2019-02-16T14:53:47.077Z,66.37
2019-02-16T15:22:32.513Z,35.87
2019-02-16T15:25:01.929Z,33.53
2019-02-16T15:27:31.313Z,36.47
2019-02-16T15:30:01.071Z,32.47
2019-02-16T15:32:30.746Z,35.20
2019-02-16T15:35:00.326Z,31.90
2019-02-16T15:37:41.807Z,34.97
2019-02-16T15:40:12.401Z,36.13
2019-02-16T15:42:42.357Z,35.37
2019-02-16T15:59:51.923Z,37.27
2019-02-16T16:02:21.471Z,40.37
2019-02-16T16:04:50.964Z,40.07
2019-02-16T16:07:20.490Z,37.10
2019-02-16T16:09:51.613Z,39.20
2019-02-16T16:12:31.585Z,37.73
2019-02-16T16:15:08.761Z,38.03
2019-02-16T16:20:34.117Z,34.23
2019-02-16T16:23:05.248Z,37.23
2019-02-16T16:31:49.986Z,40.00
2019-02-16T16:35:49.791Z,41.20
2019-02-16T16:38:33.188Z,40.03
2019-02-16T16:41:16.387Z,41.17
2019-02-16T16:43:47.546Z,46.27
2019-02-16T16:46:18.690Z,38.13
2019-02-16T16:48:52.494Z,50.40
2019-02-16T16:51:29.390Z,39.17
2019-02-16T16:54:00.531Z,42.67
2019-02-16T16:56:40.513Z,42.30
2019-02-16T16:59:11.654Z,39.40
2019-02-16T17:01:42.935Z,39.90
2019-02-16T17:04:16.786Z,40.80
2019-02-16T17:07:03.740Z,50.20
2019-02-16T17:09:52.787Z,38.77
2019-02-16T17:12:42.101Z,40.87
2019-02-16T17:15:30.103Z,46.73
2019-02-16T17:18:03.942Z,41.37
2019-02-16T17:20:35.100Z,43.47
2019-02-16T17:23:14.865Z,46.27
2019-02-16T17:25:46.301Z,39.50
2019-02-16T17:28:23.498Z,43.07
2019-02-16T17:30:54.625Z,50.43
2019-02-16T17:33:40.813Z,51.27
2019-02-16T17:36:28.017Z,42.70
2019-02-16T17:38:59.216Z,50.93
2019-02-16T17:41:33.488Z,52.70
2019-02-16T17:44:04.684Z,44.97
2019-02-16T17:46:35.808Z,49.43
2019-02-16T17:49:07.219Z,53.33
2019-02-16T17:51:54.531Z,47.00
2019-02-16T17:54:26.052Z,42.83
2019-02-16T17:56:57.192Z,45.20
2019-02-16T17:59:28.325Z,43.53
2019-02-16T18:02:15.701Z,46.80
2019-02-16T18:04:49.541Z,46.13
2019-02-16T18:07:29.425Z,48.83
2019-02-16T18:10:09.266Z,50.80
2019-02-16T18:12:53.137Z,47.13
2019-02-16T18:15:33.024Z,46.87
2019-02-16T18:18:07.001Z,50.80
2019-02-16T18:20:49.694Z,49.30
2019-02-16T18:23:20.922Z,42.33
2019-02-16T18:25:54.743Z,57.43
2019-02-16T18:28:28.583Z,46.40
2019-02-16T18:31:02.651Z,52.33
2019-02-16T18:33:40.538Z,48.57
2019-02-16T18:36:28.151Z,47.60
2019-02-16T18:38:59.318Z,52.90
2019-02-16T18:41:33.146Z,50.63
2019-02-16T18:44:04.308Z,47.70
2019-02-16T18:46:38.441Z,51.70
2019-02-16T18:49:15.460Z,63.13
2019-02-16T18:51:52.816Z,51.30
2019-02-16T18:54:30.173Z,58.93
2019-02-16T18:57:10.307Z,57.40
2019-02-16T18:59:47.484Z,47.37
2019-02-16T19:02:21.321Z,57.57
2019-02-16T19:04:58.333Z,53.90
2019-02-16T19:07:30.042Z,51.47
2019-02-16T19:16:02.383Z,54.87
2019-02-16T19:18:33.622Z,50.50
2019-02-16T19:21:04.768Z,62.13
2019-02-16T19:23:35.933Z,53.47
2019-02-16T19:26:07.439Z,57.13
2019-02-16T19:28:38.653Z,67.13
2019-02-16T19:31:26.003Z,77.00
2019-02-16T19:33:57.435Z,81.10
2019-02-16T19:36:28.680Z,69.17
2019-02-16T19:39:02.757Z,61.07
2019-02-16T19:41:34.053Z,66.60
2019-02-16T19:44:07.818Z,68.77
2019-02-16T19:46:48.207Z,67.43
2019-02-16T19:49:25.479Z,66.67
2019-02-16T19:51:56.640Z,59.37
2019-02-16T19:54:34.133Z,57.20
2019-02-16T19:57:26.386Z,56.97
2019-02-16T20:00:02.455Z,70.00
2019-02-16T20:02:33.951Z,58.60
2019-02-16T20:05:08.207Z,67.00
2019-02-16T20:07:42.155Z,57.83
2019-02-16T20:10:16.043Z,70.00
2019-02-16T20:12:59.066Z,62.87
2019-02-16T20:15:35.912Z,67.77
2019-02-16T20:18:09.652Z,62.67
2019-02-16T20:20:43.258Z,68.53
2019-02-16T20:23:20.032Z,61.37
2019-02-16T20:26:00.354Z,63.47
2019-02-16T20:28:31.855Z,60.00
2019-02-16T20:31:11.683Z,61.57
2019-02-16T20:33:59.017Z,62.00
2019-02-16T20:36:33.029Z,60.83
2019-02-16T20:39:20.085Z,67.03
2019-02-16T20:41:51.301Z,58.87
2019-02-16T20:44:22.928Z,70.20
2019-02-16T20:47:03.479Z,73.17
2019-02-16T20:49:50.542Z,70.80
2019-02-16T20:52:33.533Z,87.50
2019-02-16T20:55:13.800Z,72.47
2019-02-16T20:57:48.559Z,70.43
2019-02-16T21:00:30.273Z,76.37
2019-02-16T21:03:10.791Z,72.80
2019-02-16T21:05:58.374Z,67.07
2019-02-16T21:08:38.331Z,72.27
2019-02-16T21:11:25.880Z,70.93
2019-02-16T21:14:11.983Z,64.50
2019-02-16T21:16:48.949Z,62.90
2019-02-16T21:19:22.538Z,63.30
2019-02-16T21:22:10.223Z,59.47
2019-02-16T21:24:44.500Z,66.17
2019-02-16T21:27:22.187Z,66.03
2019-02-16T21:29:53.647Z,70.83
2019-02-16T21:32:34.188Z,59.13
2019-02-16T21:35:05.461Z,66.00
2019-02-16T21:37:36.705Z,64.50
2019-02-16T21:40:25.465Z,69.83
2019-02-16T21:42:56.608Z,62.73
2019-02-16T21:45:30.516Z,74.83
2019-02-16T21:48:01.666Z,64.50
2019-02-16T21:50:32.804Z,62.30
2019-02-16T21:53:07.211Z,71.40
2019-02-16T21:55:44.361Z,74.67
2019-02-16T21:58:24.613Z,64.80
2019-02-16T22:00:55.759Z,73.70
2019-02-16T22:03:29.709Z,80.13
2019-02-16T22:06:09.509Z,84.43
2019-02-16T22:08:40.655Z,98.37
2019-02-16T22:11:26.866Z,92.90
2019-02-16T22:13:56.358Z,86.67
2019-02-16T22:16:25.959Z,85.17
2019-02-16T22:18:55.904Z,77.17
2019-02-16T22:21:25.410Z,75.83
2019-02-16T22:23:55.310Z,75.20
2019-02-16T22:26:24.830Z,80.03
2019-02-16T22:28:54.331Z,75.00
2019-02-16T22:31:24.117Z,78.33
2019-02-16T22:33:53.615Z,90.97
2019-02-16T22:36:23.531Z,84.70
2019-02-16T22:38:53.033Z,94.07
2019-02-16T22:41:22.632Z,92.50
2019-02-16T22:43:52.117Z,83.57
2019-02-16T22:46:21.616Z,92.17
2019-02-16T22:48:51.208Z,82.03
2019-02-16T22:51:20.700Z,74.63
2019-02-16T22:53:50.554Z,64.80
2019-02-16T22:56:20.050Z,56.83
2019-02-16T22:58:49.593Z,59.67
2019-02-16T23:01:19.537Z,60.77
2019-02-16T23:03:49.476Z,52.10
2019-02-16T23:06:19.027Z,57.93
2019-02-16T23:08:48.661Z,55.10
2019-02-16T23:11:18.221Z,55.63
2019-02-16T23:13:47.805Z,55.17
2019-02-16T23:16:17.375Z,52.90
2019-02-16T23:18:47.032Z,54.40
2019-02-16T23:21:16.916Z,46.23
2019-02-16T23:23:46.415Z,49.43
2019-02-16T23:26:15.989Z,43.53
2019-02-16T23:28:45.482Z,43.03
2019-02-16T23:31:14.986Z,41.33
2019-02-16T23:33:44.487Z,48.33
2019-02-16T23:36:14.091Z,49.13
2019-02-16T23:38:43.594Z,47.93
2019-02-16T23:41:13.103Z,51.53
2019-02-16T23:43:42.892Z,46.40
2019-02-16T23:46:12.403Z,50.00
2019-02-16T23:48:41.938Z,48.40
2019-02-16T23:51:11.457Z,45.77
2019-02-16T23:53:40.955Z,52.00
2019-02-16T23:56:10.475Z,47.20
2019-02-16T23:58:49.016Z,50.13
